sensor_id;sensor_type;location;lat;lon;timestamp;P1;durP1;ratioP1;P2;durP2;ratioP2
50301;SDS011;36550;50.472;19.744;2023-01-23T00:01:40;38.30;;;16.30;;
50301;SDS011;36550;50.472;19.744;2023-01-23T00:04:24;34.50;;;14.40;;
50301;SDS011;36550;50.472;19.744;2023-01-23T00:07:08;31.90;;;14.60;;
50301;SDS011;36550;50.472;19.744;2023-01-23T00:09:52;35.20;;;15.20;;
50301;SDS011;36550;50.472;19.744;2023-01-23T00:12:36;34.80;;;14.90;;
50301;SDS011;36550;50.472;19.744;2023-01-23T00:15:23;32.00;;;14.00;;
50301;SDS011;36550;50.472;19.744;2023-01-23T00:18:07;32.50;;;14.70;;
50301;SDS011;36550;50.472;19.744;2023-01-23T00:20:51;33.20;;;14.60;;
50301;SDS011;36550;50.472;19.744;2023-01-23T00:23:35;36.80;;;14.90;;
50301;SDS011;36550;50.472;19.744;2023-01-23T00:26:20;38.30;;;14.50;;
50301;SDS011;36550;50.472;19.744;2023-01-23T00:29:06;33.90;;;13.80;;
50301;SDS011;36550;50.472;19.744;2023-01-23T00:31:50;35.20;;;14.40;;
50301;SDS011;36550;50.472;19.744;2023-01-23T00:34:33;33.20;;;13.40;;
50301;SDS011;36550;50.472;19.744;2023-01-23T00:37:17;32.80;;;14.30;;
50301;SDS011;36550;50.472;19.744;2023-01-23T00:40:01;30.30;;;13.60;;
50301;SDS011;36550;50.472;19.744;2023-01-23T00:42:46;31.70;;;13.30;;
50301;SDS011;36550;50.472;19.744;2023-01-23T00:45:30;29.20;;;12.90;;
50301;SDS011;36550;50.472;19.744;2023-01-23T00:48:14;34.00;;;13.50;;
50301;SDS011;36550;50.472;19.744;2023-01-23T00:50:58;34.60;;;14.60;;
50301;SDS011;36550;50.472;19.744;2023-01-23T00:53:42;35.20;;;15.00;;
50301;SDS011;36550;50.472;19.744;2023-01-23T00:56:26;31.80;;;14.50;;
50301;SDS011;36550;50.472;19.744;2023-01-23T00:59:10;34.40;;;14.50;;
50301;SDS011;36550;50.472;19.744;2023-01-23T01:01:54;41.20;;;18.70;;
50301;SDS011;36550;50.472;19.744;2023-01-23T01:04:38;33.30;;;14.00;;
50301;SDS011;36550;50.472;19.744;2023-01-23T01:07:21;33.10;;;14.00;;
50301;SDS011;36550;50.472;19.744;2023-01-23T01:10:06;32.20;;;13.70;;
50301;SDS011;36550;50.472;19.744;2023-01-23T01:12:50;49.40;;;21.70;;
50301;SDS011;36550;50.472;19.744;2023-01-23T01:15:34;53.00;;;23.00;;
50301;SDS011;36550;50.472;19.744;2023-01-23T01:18:19;39.30;;;17.50;;
50301;SDS011;36550;50.472;19.744;2023-01-23T01:21:05;45.10;;;16.90;;
50301;SDS011;36550;50.472;19.744;2023-01-23T01:23:50;40.30;;;16.80;;
50301;SDS011;36550;50.472;19.744;2023-01-23T01:26:34;31.70;;;15.00;;
50301;SDS011;36550;50.472;19.744;2023-01-23T01:29:18;33.80;;;15.00;;
50301;SDS011;36550;50.472;19.744;2023-01-23T01:32:02;35.10;;;15.30;;
50301;SDS011;36550;50.472;19.744;2023-01-23T01:34:46;37.50;;;15.40;;
50301;SDS011;36550;50.472;19.744;2023-01-23T01:37:34;36.30;;;14.80;;
50301;SDS011;36550;50.472;19.744;2023-01-23T01:40:21;35.00;;;14.70;;
50301;SDS011;36550;50.472;19.744;2023-01-23T01:43:08;29.00;;;13.70;;
50301;SDS011;36550;50.472;19.744;2023-01-23T01:46:10;36.30;;;14.40;;
50301;SDS011;36550;50.472;19.744;2023-01-23T01:51:59;44.50;;;18.70;;
50301;SDS011;36550;50.472;19.744;2023-01-23T01:57:41;48.80;;;18.60;;
50301;SDS011;36550;50.472;19.744;2023-01-23T02:00:27;37.70;;;15.90;;
50301;SDS011;36550;50.472;19.744;2023-01-23T02:03:11;40.50;;;15.40;;
50301;SDS011;36550;50.472;19.744;2023-01-23T02:05:55;36.80;;;16.10;;
50301;SDS011;36550;50.472;19.744;2023-01-23T02:08:52;35.20;;;14.70;;
50301;SDS011;36550;50.472;19.744;2023-01-23T02:11:44;39.10;;;15.00;;
50301;SDS011;36550;50.472;19.744;2023-01-23T02:14:28;34.40;;;14.60;;
50301;SDS011;36550;50.472;19.744;2023-01-23T02:17:11;33.90;;;13.70;;
50301;SDS011;36550;50.472;19.744;2023-01-23T02:26:19;36.60;;;15.10;;
50301;SDS011;36550;50.472;19.744;2023-01-23T02:31:52;35.00;;;14.10;;
50301;SDS011;36550;50.472;19.744;2023-01-23T02:34:38;33.60;;;13.80;;
50301;SDS011;36550;50.472;19.744;2023-01-23T02:37:23;30.40;;;13.60;;
50301;SDS011;36550;50.472;19.744;2023-01-23T02:40:12;33.00;;;12.90;;
50301;SDS011;36550;50.472;19.744;2023-01-23T02:42:57;36.10;;;14.60;;
50301;SDS011;36550;50.472;19.744;2023-01-23T02:45:43;34.60;;;15.30;;
50301;SDS011;36550;50.472;19.744;2023-01-23T02:48:27;34.90;;;14.10;;
50301;SDS011;36550;50.472;19.744;2023-01-23T02:51:11;30.90;;;13.00;;
50301;SDS011;36550;50.472;19.744;2023-01-23T02:53:55;28.70;;;13.10;;
50301;SDS011;36550;50.472;19.744;2023-01-23T02:56:39;29.90;;;13.10;;
50301;SDS011;36550;50.472;19.744;2023-01-23T02:59:24;35.20;;;13.80;;
50301;SDS011;36550;50.472;19.744;2023-01-23T03:02:27;37.90;;;15.20;;
50301;SDS011;36550;50.472;19.744;2023-01-23T03:05:11;33.30;;;14.40;;
50301;SDS011;36550;50.472;19.744;2023-01-23T03:07:55;34.20;;;14.50;;
50301;SDS011;36550;50.472;19.744;2023-01-23T03:10:40;33.10;;;13.40;;
50301;SDS011;36550;50.472;19.744;2023-01-23T03:13:25;34.60;;;13.10;;
50301;SDS011;36550;50.472;19.744;2023-01-23T03:16:09;36.00;;;14.60;;
50301;SDS011;36550;50.472;19.744;2023-01-23T03:18:53;33.90;;;14.40;;
50301;SDS011;36550;50.472;19.744;2023-01-23T03:21:38;34.70;;;15.20;;
50301;SDS011;36550;50.472;19.744;2023-01-23T03:24:23;40.40;;;15.40;;
50301;SDS011;36550;50.472;19.744;2023-01-23T03:27:07;37.60;;;16.40;;
50301;SDS011;36550;50.472;19.744;2023-01-23T03:29:50;38.60;;;15.90;;
50301;SDS011;36550;50.472;19.744;2023-01-23T03:32:53;33.30;;;14.00;;
50301;SDS011;36550;50.472;19.744;2023-01-23T03:35:37;35.10;;;14.40;;
50301;SDS011;36550;50.472;19.744;2023-01-23T03:38:21;31.50;;;13.80;;
50301;SDS011;36550;50.472;19.744;2023-01-23T03:41:05;33.20;;;14.00;;
50301;SDS011;36550;50.472;19.744;2023-01-23T03:44:07;34.20;;;14.70;;
50301;SDS011;36550;50.472;19.744;2023-01-23T03:46:51;33.10;;;14.30;;
50301;SDS011;36550;50.472;19.744;2023-01-23T03:49:35;35.20;;;14.80;;
50301;SDS011;36550;50.472;19.744;2023-01-23T03:52:19;34.20;;;14.30;;
50301;SDS011;36550;50.472;19.744;2023-01-23T03:55:02;35.70;;;15.10;;
50301;SDS011;36550;50.472;19.744;2023-01-23T03:57:47;32.20;;;14.30;;
50301;SDS011;36550;50.472;19.744;2023-01-23T04:00:30;33.10;;;13.70;;
50301;SDS011;36550;50.472;19.744;2023-01-23T04:03:14;34.30;;;12.80;;
50301;SDS011;36550;50.472;19.744;2023-01-23T04:05:58;32.10;;;13.60;;
50301;SDS011;36550;50.472;19.744;2023-01-23T04:08:42;32.80;;;14.90;;
50301;SDS011;36550;50.472;19.744;2023-01-23T04:11:26;30.60;;;13.90;;
50301;SDS011;36550;50.472;19.744;2023-01-23T04:14:10;34.20;;;13.50;;
50301;SDS011;36550;50.472;19.744;2023-01-23T04:16:54;34.70;;;14.80;;
50301;SDS011;36550;50.472;19.744;2023-01-23T04:19:38;36.30;;;14.80;;
50301;SDS011;36550;50.472;19.744;2023-01-23T04:22:22;36.20;;;14.30;;
50301;SDS011;36550;50.472;19.744;2023-01-23T04:25:06;32.80;;;14.70;;
50301;SDS011;36550;50.472;19.744;2023-01-23T04:27:50;32.80;;;14.10;;
50301;SDS011;36550;50.472;19.744;2023-01-23T04:30:34;30.60;;;14.10;;
50301;SDS011;36550;50.472;19.744;2023-01-23T04:33:18;32.40;;;13.40;;
50301;SDS011;36550;50.472;19.744;2023-01-23T04:36:03;33.40;;;13.70;;
50301;SDS011;36550;50.472;19.744;2023-01-23T04:38:48;31.70;;;13.50;;
50301;SDS011;36550;50.472;19.744;2023-01-23T04:41:32;32.90;;;13.40;;
50301;SDS011;36550;50.472;19.744;2023-01-23T04:44:16;37.70;;;15.00;;
50301;SDS011;36550;50.472;19.744;2023-01-23T04:47:03;37.70;;;16.60;;
50301;SDS011;36550;50.472;19.744;2023-01-23T04:49:48;39.00;;;17.00;;
50301;SDS011;36550;50.472;19.744;2023-01-23T04:52:31;37.20;;;16.80;;
50301;SDS011;36550;50.472;19.744;2023-01-23T04:55:15;41.30;;;17.30;;
50301;SDS011;36550;50.472;19.744;2023-01-23T04:57:59;40.10;;;16.90;;
50301;SDS011;36550;50.472;19.744;2023-01-23T05:00:43;40.80;;;16.60;;
50301;SDS011;36550;50.472;19.744;2023-01-23T05:03:28;49.00;;;19.20;;
50301;SDS011;36550;50.472;19.744;2023-01-23T05:06:12;55.60;;;20.10;;
50301;SDS011;36550;50.472;19.744;2023-01-23T05:08:55;45.70;;;17.20;;
50301;SDS011;36550;50.472;19.744;2023-01-23T05:11:39;42.30;;;16.50;;
50301;SDS011;36550;50.472;19.744;2023-01-23T05:14:22;46.60;;;17.80;;
50301;SDS011;36550;50.472;19.744;2023-01-23T05:17:07;36.20;;;16.20;;
50301;SDS011;36550;50.472;19.744;2023-01-23T05:19:51;41.90;;;17.20;;
50301;SDS011;36550;50.472;19.744;2023-01-23T05:22:34;39.80;;;16.30;;
50301;SDS011;36550;50.472;19.744;2023-01-23T05:25:19;46.60;;;17.70;;
50301;SDS011;36550;50.472;19.744;2023-01-23T05:28:06;50.60;;;20.30;;
50301;SDS011;36550;50.472;19.744;2023-01-23T05:30:50;45.50;;;17.70;;
50301;SDS011;36550;50.472;19.744;2023-01-23T05:33:34;37.50;;;15.30;;
50301;SDS011;36550;50.472;19.744;2023-01-23T05:36:18;36.10;;;15.00;;
50301;SDS011;36550;50.472;19.744;2023-01-23T05:39:02;35.20;;;14.70;;
50301;SDS011;36550;50.472;19.744;2023-01-23T05:41:46;32.00;;;13.50;;
50301;SDS011;36550;50.472;19.744;2023-01-23T05:44:30;38.90;;;16.20;;
50301;SDS011;36550;50.472;19.744;2023-01-23T05:47:14;40.10;;;16.70;;
50301;SDS011;36550;50.472;19.744;2023-01-23T05:49:58;41.10;;;18.60;;
50301;SDS011;36550;50.472;19.744;2023-01-23T05:52:43;45.20;;;20.20;;
50301;SDS011;36550;50.472;19.744;2023-01-23T05:55:28;49.20;;;22.40;;
50301;SDS011;36550;50.472;19.744;2023-01-23T05:58:12;50.30;;;21.90;;
50301;SDS011;36550;50.472;19.744;2023-01-23T06:00:55;43.40;;;18.60;;
50301;SDS011;36550;50.472;19.744;2023-01-23T06:03:39;36.70;;;15.80;;
50301;SDS011;36550;50.472;19.744;2023-01-23T06:06:23;30.20;;;14.40;;
50301;SDS011;36550;50.472;19.744;2023-01-23T06:09:06;34.00;;;15.40;;
50301;SDS011;36550;50.472;19.744;2023-01-23T06:11:50;34.10;;;16.10;;
50301;SDS011;36550;50.472;19.744;2023-01-23T06:14:34;32.70;;;15.10;;
50301;SDS011;36550;50.472;19.744;2023-01-23T06:17:17;33.70;;;14.30;;
50301;SDS011;36550;50.472;19.744;2023-01-23T06:20:02;34.20;;;15.30;;
50301;SDS011;36550;50.472;19.744;2023-01-23T06:22:47;28.10;;;13.20;;
50301;SDS011;36550;50.472;19.744;2023-01-23T06:25:31;37.90;;;15.80;;
50301;SDS011;36550;50.472;19.744;2023-01-23T06:28:14;37.00;;;15.00;;
50301;SDS011;36550;50.472;19.744;2023-01-23T06:30:59;38.90;;;16.80;;
50301;SDS011;36550;50.472;19.744;2023-01-23T06:33:47;37.40;;;15.90;;
50301;SDS011;36550;50.472;19.744;2023-01-23T06:36:33;37.90;;;16.10;;
50301;SDS011;36550;50.472;19.744;2023-01-23T06:39:17;39.00;;;17.70;;
50301;SDS011;36550;50.472;19.744;2023-01-23T06:42:00;51.90;;;22.10;;
50301;SDS011;36550;50.472;19.744;2023-01-23T06:44:44;43.70;;;20.50;;
50301;SDS011;36550;50.472;19.744;2023-01-23T06:47:28;46.60;;;20.30;;
50301;SDS011;36550;50.472;19.744;2023-01-23T06:50:12;45.80;;;21.20;;
50301;SDS011;36550;50.472;19.744;2023-01-23T06:52:56;48.80;;;22.50;;
50301;SDS011;36550;50.472;19.744;2023-01-23T06:55:39;58.70;;;24.10;;
50301;SDS011;36550;50.472;19.744;2023-01-23T06:58:23;70.50;;;31.60;;
50301;SDS011;36550;50.472;19.744;2023-01-23T07:01:08;49.60;;;21.80;;
50301;SDS011;36550;50.472;19.744;2023-01-23T07:03:53;39.30;;;17.50;;
50301;SDS011;36550;50.472;19.744;2023-01-23T07:06:36;39.30;;;17.30;;
50301;SDS011;36550;50.472;19.744;2023-01-23T07:09:20;35.40;;;15.70;;
50301;SDS011;36550;50.472;19.744;2023-01-23T07:12:04;36.30;;;15.60;;
50301;SDS011;36550;50.472;19.744;2023-01-23T07:14:48;34.80;;;15.80;;
50301;SDS011;36550;50.472;19.744;2023-01-23T07:17:31;31.60;;;15.40;;
50301;SDS011;36550;50.472;19.744;2023-01-23T07:20:15;33.60;;;15.20;;
50301;SDS011;36550;50.472;19.744;2023-01-23T07:22:59;30.90;;;14.90;;
50301;SDS011;36550;50.472;19.744;2023-01-23T07:25:43;35.90;;;16.10;;
50301;SDS011;36550;50.472;19.744;2023-01-23T07:28:27;32.70;;;15.00;;
50301;SDS011;36550;50.472;19.744;2023-01-23T07:31:12;34.50;;;15.90;;
50301;SDS011;36550;50.472;19.744;2023-01-23T07:33:56;31.20;;;14.90;;
50301;SDS011;36550;50.472;19.744;2023-01-23T07:36:40;30.00;;;13.80;;
50301;SDS011;36550;50.472;19.744;2023-01-23T07:39:24;29.10;;;14.90;;
50301;SDS011;36550;50.472;19.744;2023-01-23T07:42:08;31.70;;;14.60;;
50301;SDS011;36550;50.472;19.744;2023-01-23T07:44:52;36.80;;;17.10;;
50301;SDS011;36550;50.472;19.744;2023-01-23T07:47:36;36.80;;;17.10;;
50301;SDS011;36550;50.472;19.744;2023-01-23T07:50:24;31.70;;;16.10;;
50301;SDS011;36550;50.472;19.744;2023-01-23T07:53:08;28.70;;;14.20;;
50301;SDS011;36550;50.472;19.744;2023-01-23T07:55:52;28.20;;;13.90;;
50301;SDS011;36550;50.472;19.744;2023-01-23T07:58:36;26.90;;;13.50;;
50301;SDS011;36550;50.472;19.744;2023-01-23T08:01:20;32.60;;;15.70;;
50301;SDS011;36550;50.472;19.744;2023-01-23T08:04:03;30.20;;;14.60;;
50301;SDS011;36550;50.472;19.744;2023-01-23T08:06:47;29.00;;;13.30;;
50301;SDS011;36550;50.472;19.744;2023-01-23T08:09:31;27.50;;;12.50;;
50301;SDS011;36550;50.472;19.744;2023-01-23T08:12:15;27.10;;;13.70;;
50301;SDS011;36550;50.472;19.744;2023-01-23T08:14:58;27.10;;;12.40;;
50301;SDS011;36550;50.472;19.744;2023-01-23T08:17:42;25.40;;;12.50;;
50301;SDS011;36550;50.472;19.744;2023-01-23T08:20:26;24.50;;;13.40;;
50301;SDS011;36550;50.472;19.744;2023-01-23T08:23:10;32.70;;;15.80;;
50301;SDS011;36550;50.472;19.744;2023-01-23T08:25:54;28.60;;;13.40;;
50301;SDS011;36550;50.472;19.744;2023-01-23T08:28:39;26.00;;;14.00;;
50301;SDS011;36550;50.472;19.744;2023-01-23T08:31:24;30.30;;;15.00;;
50301;SDS011;36550;50.472;19.744;2023-01-23T08:34:08;27.50;;;14.20;;
50301;SDS011;36550;50.472;19.744;2023-01-23T08:36:53;36.70;;;15.80;;
50301;SDS011;36550;50.472;19.744;2023-01-23T08:39:37;33.80;;;15.60;;
50301;SDS011;36550;50.472;19.744;2023-01-23T08:42:21;40.10;;;18.60;;
50301;SDS011;36550;50.472;19.744;2023-01-23T08:45:05;43.30;;;21.00;;
50301;SDS011;36550;50.472;19.744;2023-01-23T08:47:50;38.60;;;18.70;;
50301;SDS011;36550;50.472;19.744;2023-01-23T08:50:34;34.70;;;17.00;;
50301;SDS011;36550;50.472;19.744;2023-01-23T08:53:18;34.50;;;16.20;;
50301;SDS011;36550;50.472;19.744;2023-01-23T08:56:03;34.00;;;15.50;;
50301;SDS011;36550;50.472;19.744;2023-01-23T08:58:49;35.20;;;15.50;;
50301;SDS011;36550;50.472;19.744;2023-01-23T09:01:33;33.10;;;15.80;;
50301;SDS011;36550;50.472;19.744;2023-01-23T09:04:17;32.90;;;16.50;;
50301;SDS011;36550;50.472;19.744;2023-01-23T09:07:01;33.80;;;15.70;;
50301;SDS011;36550;50.472;19.744;2023-01-23T09:09:45;36.70;;;17.20;;
50301;SDS011;36550;50.472;19.744;2023-01-23T09:12:29;31.80;;;15.70;;
50301;SDS011;36550;50.472;19.744;2023-01-23T09:15:15;36.30;;;16.60;;
50301;SDS011;36550;50.472;19.744;2023-01-23T09:17:59;31.60;;;15.60;;
50301;SDS011;36550;50.472;19.744;2023-01-23T09:20:43;30.50;;;15.20;;
50301;SDS011;36550;50.472;19.744;2023-01-23T09:23:27;36.20;;;16.90;;
50301;SDS011;36550;50.472;19.744;2023-01-23T09:26:12;38.30;;;17.10;;
50301;SDS011;36550;50.472;19.744;2023-01-23T09:28:57;36.00;;;16.40;;
50301;SDS011;36550;50.472;19.744;2023-01-23T09:31:41;33.80;;;15.30;;
50301;SDS011;36550;50.472;19.744;2023-01-23T09:34:24;35.30;;;16.00;;
50301;SDS011;36550;50.472;19.744;2023-01-23T09:37:08;46.20;;;21.80;;
50301;SDS011;36550;50.472;19.744;2023-01-23T09:39:52;38.90;;;18.70;;
50301;SDS011;36550;50.472;19.744;2023-01-23T09:42:36;32.80;;;16.00;;
50301;SDS011;36550;50.472;19.744;2023-01-23T09:45:21;34.60;;;17.00;;
50301;SDS011;36550;50.472;19.744;2023-01-23T09:48:16;39.50;;;18.20;;
50301;SDS011;36550;50.472;19.744;2023-01-23T09:51:10;34.90;;;16.80;;
50301;SDS011;36550;50.472;19.744;2023-01-23T09:54:00;36.60;;;17.90;;
50301;SDS011;36550;50.472;19.744;2023-01-23T09:56:56;35.50;;;16.10;;
50301;SDS011;36550;50.472;19.744;2023-01-23T09:59:44;30.60;;;15.80;;
50301;SDS011;36550;50.472;19.744;2023-01-23T10:02:33;32.60;;;16.30;;
50301;SDS011;36550;50.472;19.744;2023-01-23T10:05:17;34.40;;;15.90;;
50301;SDS011;36550;50.472;19.744;2023-01-23T10:11:26;32.40;;;15.60;;
50301;SDS011;36550;50.472;19.744;2023-01-23T10:17:18;34.90;;;17.20;;
50301;SDS011;36550;50.472;19.744;2023-01-23T10:26:54;28.90;;;15.30;;
50301;SDS011;36550;50.472;19.744;2023-01-23T10:29:43;29.10;;;14.70;;
50301;SDS011;36550;50.472;19.744;2023-01-23T10:32:35;26.10;;;13.00;;
50301;SDS011;36550;50.472;19.744;2023-01-23T10:35:35;31.80;;;15.40;;
50301;SDS011;36550;50.472;19.744;2023-01-23T10:38:30;30.70;;;16.40;;
50301;SDS011;36550;50.472;19.744;2023-01-23T10:41:20;32.50;;;16.60;;
50301;SDS011;36550;50.472;19.744;2023-01-23T10:44:08;30.70;;;14.70;;
50301;SDS011;36550;50.472;19.744;2023-01-23T10:47:01;26.90;;;14.30;;
50301;SDS011;36550;50.472;19.744;2023-01-23T10:49:54;29.00;;;15.30;;
50301;SDS011;36550;50.472;19.744;2023-01-23T10:52:44;25.60;;;14.50;;
50301;SDS011;36550;50.472;19.744;2023-01-23T10:55:29;24.80;;;14.30;;
50301;SDS011;36550;50.472;19.744;2023-01-23T11:01:26;27.30;;;14.70;;
50301;SDS011;36550;50.472;19.744;2023-01-23T11:04:18;28.40;;;14.20;;
50301;SDS011;36550;50.472;19.744;2023-01-23T11:09:51;30.90;;;16.60;;
50301;SDS011;36550;50.472;19.744;2023-01-23T11:12:48;37.90;;;19.10;;
50301;SDS011;36550;50.472;19.744;2023-01-23T11:15:36;29.70;;;15.60;;
50301;SDS011;36550;50.472;19.744;2023-01-23T11:21:19;25.10;;;13.70;;
50301;SDS011;36550;50.472;19.744;2023-01-23T11:32:57;28.90;;;15.20;;
50301;SDS011;36550;50.472;19.744;2023-01-23T11:35:46;27.20;;;14.60;;
50301;SDS011;36550;50.472;19.744;2023-01-23T11:38:44;32.60;;;15.40;;
50301;SDS011;36550;50.472;19.744;2023-01-23T11:41:32;29.70;;;14.90;;
50301;SDS011;36550;50.472;19.744;2023-01-23T11:44:19;30.20;;;15.70;;
50301;SDS011;36550;50.472;19.744;2023-01-23T11:56:22;29.20;;;15.40;;
50301;SDS011;36550;50.472;19.744;2023-01-23T11:59:34;33.10;;;16.60;;
50301;SDS011;36550;50.472;19.744;2023-01-23T12:05:51;37.70;;;19.00;;
50301;SDS011;36550;50.472;19.744;2023-01-23T12:09:12;35.30;;;17.70;;
50301;SDS011;36550;50.472;19.744;2023-01-23T12:21:17;34.40;;;17.80;;
50301;SDS011;36550;50.472;19.744;2023-01-23T12:24:15;36.60;;;18.00;;
50301;SDS011;36550;50.472;19.744;2023-01-23T12:36:49;37.50;;;17.00;;
50301;SDS011;36550;50.472;19.744;2023-01-23T12:42:43;36.80;;;18.40;;
50301;SDS011;36550;50.472;19.744;2023-01-23T12:45:32;33.80;;;16.90;;
50301;SDS011;36550;50.472;19.744;2023-01-23T12:48:23;42.40;;;18.80;;
50301;SDS011;36550;50.472;19.744;2023-01-23T12:51:56;42.50;;;19.50;;
50301;SDS011;36550;50.472;19.744;2023-01-23T12:54:32;42.50;;;18.80;;
50301;SDS011;36550;50.472;19.744;2023-01-23T12:57:20;45.10;;;19.30;;
50301;SDS011;36550;50.472;19.744;2023-01-23T13:06:31;47.40;;;20.90;;
50301;SDS011;36550;50.472;19.744;2023-01-23T13:09:31;47.00;;;20.80;;
50301;SDS011;36550;50.472;19.744;2023-01-23T13:12:26;41.90;;;20.50;;
50301;SDS011;36550;50.472;19.744;2023-01-23T13:18:02;38.80;;;18.00;;
50301;SDS011;36550;50.472;19.744;2023-01-23T13:20:56;42.50;;;20.20;;
50301;SDS011;36550;50.472;19.744;2023-01-23T13:33:46;33.30;;;16.40;;
50301;SDS011;36550;50.472;19.744;2023-01-23T13:48:28;41.00;;;19.40;;
50301;SDS011;36550;50.472;19.744;2023-01-23T13:51:41;38.40;;;18.80;;
50301;SDS011;36550;50.472;19.744;2023-01-23T13:54:29;37.50;;;17.80;;
50301;SDS011;36550;50.472;19.744;2023-01-23T13:57:34;38.50;;;18.30;;
50301;SDS011;36550;50.472;19.744;2023-01-23T14:00:20;39.90;;;17.70;;
50301;SDS011;36550;50.472;19.744;2023-01-23T14:03:09;36.70;;;17.80;;
50301;SDS011;36550;50.472;19.744;2023-01-23T14:06:19;37.10;;;17.20;;
50301;SDS011;36550;50.472;19.744;2023-01-23T14:09:27;33.40;;;15.90;;
50301;SDS011;36550;50.472;19.744;2023-01-23T14:12:12;32.70;;;15.50;;
50301;SDS011;36550;50.472;19.744;2023-01-23T14:14:56;29.90;;;15.40;;
50301;SDS011;36550;50.472;19.744;2023-01-23T14:17:58;29.60;;;15.90;;
50301;SDS011;36550;50.472;19.744;2023-01-23T14:20:42;37.80;;;17.80;;
50301;SDS011;36550;50.472;19.744;2023-01-23T14:23:28;37.60;;;17.60;;
50301;SDS011;36550;50.472;19.744;2023-01-23T14:26:18;33.90;;;15.60;;
50301;SDS011;36550;50.472;19.744;2023-01-23T14:29:20;32.10;;;16.40;;
50301;SDS011;36550;50.472;19.744;2023-01-23T14:32:04;30.80;;;15.60;;
50301;SDS011;36550;50.472;19.744;2023-01-23T14:34:48;29.00;;;15.30;;
50301;SDS011;36550;50.472;19.744;2023-01-23T14:37:32;27.10;;;14.40;;
50301;SDS011;36550;50.472;19.744;2023-01-23T14:40:19;30.90;;;15.60;;
50301;SDS011;36550;50.472;19.744;2023-01-23T14:43:04;30.00;;;15.70;;
50301;SDS011;36550;50.472;19.744;2023-01-23T14:45:57;30.60;;;14.20;;
50301;SDS011;36550;50.472;19.744;2023-01-23T14:48:44;29.90;;;15.40;;
50301;SDS011;36550;50.472;19.744;2023-01-23T14:51:34;30.70;;;15.70;;
50301;SDS011;36550;50.472;19.744;2023-01-23T14:54:18;38.00;;;16.10;;
50301;SDS011;36550;50.472;19.744;2023-01-23T14:57:02;40.00;;;18.30;;
50301;SDS011;36550;50.472;19.744;2023-01-23T14:59:48;43.30;;;19.90;;
50301;SDS011;36550;50.472;19.744;2023-01-23T15:02:35;36.00;;;17.50;;
50301;SDS011;36550;50.472;19.744;2023-01-23T15:08:15;33.40;;;15.00;;
50301;SDS011;36550;50.472;19.744;2023-01-23T15:11:02;29.70;;;14.30;;
50301;SDS011;36550;50.472;19.744;2023-01-23T15:13:49;36.00;;;15.70;;
50301;SDS011;36550;50.472;19.744;2023-01-23T15:16:37;36.90;;;16.80;;
50301;SDS011;36550;50.472;19.744;2023-01-23T15:19:21;35.70;;;17.20;;
50301;SDS011;36550;50.472;19.744;2023-01-23T15:24:57;36.10;;;15.40;;
50301;SDS011;36550;50.472;19.744;2023-01-23T15:31:57;36.90;;;16.30;;
50301;SDS011;36550;50.472;19.744;2023-01-23T15:34:23;39.50;;;18.60;;
50301;SDS011;36550;50.472;19.744;2023-01-23T15:39:58;48.40;;;22.10;;
50301;SDS011;36550;50.472;19.744;2023-01-23T15:45:52;48.10;;;18.30;;
50301;SDS011;36550;50.472;19.744;2023-01-23T15:48:38;59.10;;;22.50;;
50301;SDS011;36550;50.472;19.744;2023-01-23T15:51:22;43.10;;;20.30;;
50301;SDS011;36550;50.472;19.744;2023-01-23T15:54:08;37.10;;;18.20;;
50301;SDS011;36550;50.472;19.744;2023-01-23T15:56:58;35.00;;;15.60;;
50301;SDS011;36550;50.472;19.744;2023-01-23T15:59:43;30.80;;;14.90;;
50301;SDS011;36550;50.472;19.744;2023-01-23T16:02:27;31.50;;;15.30;;
50301;SDS011;36550;50.472;19.744;2023-01-23T16:05:11;34.40;;;16.10;;
50301;SDS011;36550;50.472;19.744;2023-01-23T16:07:55;31.10;;;14.40;;
50301;SDS011;36550;50.472;19.744;2023-01-23T16:10:43;31.50;;;15.40;;
50301;SDS011;36550;50.472;19.744;2023-01-23T16:13:27;31.70;;;16.20;;
50301;SDS011;36550;50.472;19.744;2023-01-23T16:16:14;37.80;;;18.00;;
50301;SDS011;36550;50.472;19.744;2023-01-23T16:18:59;40.00;;;19.50;;
50301;SDS011;36550;50.472;19.744;2023-01-23T16:21:44;49.60;;;23.40;;
50301;SDS011;36550;50.472;19.744;2023-01-23T16:24:27;38.10;;;17.00;;
50301;SDS011;36550;50.472;19.744;2023-01-23T16:27:17;28.30;;;15.70;;
50301;SDS011;36550;50.472;19.744;2023-01-23T16:30:02;29.40;;;15.20;;
50301;SDS011;36550;50.472;19.744;2023-01-23T16:32:47;29.90;;;14.30;;
50301;SDS011;36550;50.472;19.744;2023-01-23T16:35:31;26.50;;;12.70;;
50301;SDS011;36550;50.472;19.744;2023-01-23T16:38:32;27.00;;;13.10;;
50301;SDS011;36550;50.472;19.744;2023-01-23T16:41:16;30.80;;;14.40;;
50301;SDS011;36550;50.472;19.744;2023-01-23T16:44:01;33.80;;;14.00;;
50301;SDS011;36550;50.472;19.744;2023-01-23T16:46:45;30.20;;;15.40;;
50301;SDS011;36550;50.472;19.744;2023-01-23T16:49:29;29.50;;;13.60;;
50301;SDS011;36550;50.472;19.744;2023-01-23T16:52:13;38.80;;;17.10;;
50301;SDS011;36550;50.472;19.744;2023-01-23T16:54:57;28.50;;;13.90;;
50301;SDS011;36550;50.472;19.744;2023-01-23T16:57:41;31.90;;;14.80;;
50301;SDS011;36550;50.472;19.744;2023-01-23T17:00:26;32.20;;;14.80;;
50301;SDS011;36550;50.472;19.744;2023-01-23T17:03:12;31.70;;;13.80;;
50301;SDS011;36550;50.472;19.744;2023-01-23T17:06:05;31.70;;;14.20;;
50301;SDS011;36550;50.472;19.744;2023-01-23T17:08:54;33.10;;;14.80;;
50301;SDS011;36550;50.472;19.744;2023-01-23T17:11:40;34.00;;;16.10;;
50301;SDS011;36550;50.472;19.744;2023-01-23T17:14:29;37.60;;;18.00;;
50301;SDS011;36550;50.472;19.744;2023-01-23T17:17:15;37.50;;;17.90;;
50301;SDS011;36550;50.472;19.744;2023-01-23T17:20:13;40.60;;;18.40;;
50301;SDS011;36550;50.472;19.744;2023-01-23T17:22:57;40.10;;;19.90;;
50301;SDS011;36550;50.472;19.744;2023-01-23T17:25:41;44.80;;;20.70;;
50301;SDS011;36550;50.472;19.744;2023-01-23T17:28:30;38.30;;;18.40;;
50301;SDS011;36550;50.472;19.744;2023-01-23T17:31:21;37.90;;;17.00;;
50301;SDS011;36550;50.472;19.744;2023-01-23T17:34:08;33.50;;;16.70;;
50301;SDS011;36550;50.472;19.744;2023-01-23T17:37:01;33.40;;;16.30;;
50301;SDS011;36550;50.472;19.744;2023-01-23T17:39:45;32.30;;;16.20;;
50301;SDS011;36550;50.472;19.744;2023-01-23T17:42:28;30.80;;;14.70;;
50301;SDS011;36550;50.472;19.744;2023-01-23T17:45:13;30.80;;;15.70;;
50301;SDS011;36550;50.472;19.744;2023-01-23T17:47:59;28.00;;;13.90;;
50301;SDS011;36550;50.472;19.744;2023-01-23T17:50:44;30.50;;;14.00;;
50301;SDS011;36550;50.472;19.744;2023-01-23T17:53:28;28.80;;;14.50;;
50301;SDS011;36550;50.472;19.744;2023-01-23T17:56:13;33.70;;;15.00;;
50301;SDS011;36550;50.472;19.744;2023-01-23T17:58:57;28.00;;;13.40;;
50301;SDS011;36550;50.472;19.744;2023-01-23T18:01:41;29.30;;;14.70;;
50301;SDS011;36550;50.472;19.744;2023-01-23T18:04:25;25.50;;;13.80;;
50301;SDS011;36550;50.472;19.744;2023-01-23T18:07:09;27.10;;;14.20;;